Menu Close Menu
Station Historical Data
Daily Summary for March 30, 2017 Units:  Both    English   Metric
« Previous Day
Next Day »
Daily Weekly Monthly Yearly Custom
  High: Low: Average:
Temperature: 81.7 °F /  27.6 °C 60.3 °F /  15.7 °C 70.5 °F /  21.4 °C
Dew Point: 58.8 °F /  14.9 °C 47.0 °F /  8.3 °C 55 °F /  12.8 °C
Humidity: 89% 32% 61%
Wind Speed: 3.0mph /  4.8km/h - 0.4mph /  0.6km/h
Wind Gust: 8.0mph /  12.9km/h - -
Wind- - NW
Pressure: 30.00 in /  1015.8 hPa 29.77 in /  1008 hPa -
Precipitation: 0.19 in /  4.83 mm    
Historical Graphs
 
 
Tabular Data for March 30, 2017
Time Temperature Dew Point Pressure Wind Wind Speed Wind Gust Humidity Rainfall Rate (Hourly) solar Conditions
00:00 68.1 °F /  20.1 °C 56.7 °F /  13.7 °C 29.98in /  1015.1hPa Calm     67% 0.00in /  0mm 0.0 W/m2 SCT
00:15 68.0 °F /  20 °C 57.0 °F /  13.9 °C 29.97in /  1014.8hPa Calm     68% 0.00in /  0mm 0.0 W/m2 SCT
00:30 67.7 °F /  19.8 °C 57.2 °F /  14 °C 29.97in /  1014.8hPa Calm     69% 0.00in /  0mm 0.0 W/m2 SCT
00:45 67.8 °F /  19.9 °C 56.9 °F /  13.8 °C 29.97in /  1014.8hPa Calm     68% 0.00in /  0mm 0.0 W/m2 SCT
01:00 68.0 °F /  20 °C 57.8 °F /  14.3 °C 29.97in /  1014.8hPa Calm     70% 0.00in /  0mm 0.0 W/m2 SCT
01:15 67.2 °F /  19.6 °C 57.9 °F /  14.4 °C 29.96in /  1014.4hPa Calm     72% 0.00in /  0mm 0.0 W/m2 SCT
01:30 66.5 °F /  19.2 °C 57.9 °F /  14.4 °C 29.97in /  1014.8hPa Calm     74% 0.00in /  0mm 0.0 W/m2 SCT
01:45 65.8 °F /  18.8 °C 57.7 °F /  14.3 °C 29.97in /  1014.8hPa Calm     75% 0.00in /  0mm 0.0 W/m2 SCT
02:00 65.2 °F /  18.4 °C 57.8 °F /  14.3 °C 29.96in /  1014.4hPa Calm     77% 0.00in /  0mm 0.0 W/m2 SCT
02:15 64.5 °F /  18.1 °C 56.8 °F /  13.8 °C 29.96in /  1014.4hPa Calm     76% 0.00in /  0mm 0.0 W/m2 SCT
02:30 64.5 °F /  18.1 °C 56.8 °F /  13.8 °C 29.96in /  1014.4hPa Calm     76% 0.00in /  0mm 0.0 W/m2 SCT
02:45 64.5 °F /  18.1 °C 56.8 °F /  13.8 °C 29.95in /  1014.1hPa Calm     76% 0.00in /  0mm 0.0 W/m2 SCT
03:00 64.5 °F /  18.1 °C 56.8 °F /  13.8 °C 29.95in /  1014.1hPa Calm     76% 0.00in /  0mm 0.0 W/m2 SCT
03:15 64.5 °F /  18.1 °C 56.8 °F /  13.8 °C 29.95in /  1014.1hPa Calm     76% 0.00in /  0mm 0.0 W/m2 SCT
03:30 64.5 °F /  18.1 °C 56.8 °F /  13.8 °C 29.94in /  1013.8hPa Calm     76% 0.00in /  0mm 0.0 W/m2 SCT
03:45 64.5 °F /  18.1 °C 56.8 °F /  13.8 °C 29.94in /  1013.8hPa Calm     76% 0.00in /  0mm 0.0 W/m2 SCT
04:00 64.5 °F /  18.1 °C 56.8 °F /  13.8 °C 29.95in /  1014.1hPa Calm     76% 0.00in /  0mm 0.0 W/m2 SCT
04:15 64.5 °F /  18.1 °C 56.8 °F /  13.8 °C 29.94in /  1013.8hPa Calm     76% 0.00in /  0mm 0.0 W/m2 SCT
04:30 64.5 °F /  18.1 °C 56.8 °F /  13.8 °C 29.95in /  1014.1hPa Calm     76% 0.00in /  0mm 0.0 W/m2 SCT
04:45 64.5 °F /  18.1 °C 56.8 °F /  13.8 °C 29.95in /  1014.1hPa Calm     76% 0.00in /  0mm 0.0 W/m2 SCT
05:00 64.5 °F /  18.1 °C 56.8 °F /  13.8 °C 29.95in /  1014.1hPa Calm     76% 0.00in /  0mm 0.0 W/m2 SCT
05:15 64.5 °F /  18.1 °C 56.8 °F /  13.8 °C 29.95in /  1014.1hPa Calm     76% 0.00in /  0mm 0.0 W/m2 SCT
05:30 64.5 °F /  18.1 °C 56.8 °F /  13.8 °C 29.95in /  1014.1hPa Calm     76% 0.00in /  0mm 0.0 W/m2 SCT
05:45 64.5 °F /  18.1 °C 56.8 °F /  13.8 °C 29.95in /  1014.1hPa Calm     76% 0.00in /  0mm 0.0 W/m2 SCT
06:00 64.5 °F /  18.1 °C 56.8 °F /  13.8 °C 29.95in /  1014.1hPa Calm     76% 0.00in /  0mm 0.0 W/m2 SCT
06:15 64.5 °F /  18.1 °C 56.8 °F /  13.8 °C 29.95in /  1014.1hPa Calm     76% 0.00in /  0mm 0.0 W/m2 SCT
06:30 64.5 °F /  18.1 °C 56.8 °F /  13.8 °C 29.94in /  1013.8hPa Calm     76% 0.00in /  0mm 0.0 W/m2 SCT
06:45 64.5 °F /  18.1 °C 56.8 °F /  13.8 °C 29.95in /  1014.1hPa Calm     76% 0.00in /  0mm 0.0 W/m2 SCT
07:00 64.5 °F /  18.1 °C 56.8 °F /  13.8 °C 29.95in /  1014.1hPa Calm     76% 0.00in /  0mm 0.0 W/m2 SCT
07:15 64.5 °F /  18.1 °C 56.8 °F /  13.8 °C 29.96in /  1014.4hPa Calm     76% 0.00in /  0mm 0.0 W/m2 SCT
07:30 64.5 °F /  18.1 °C 56.8 °F /  13.8 °C 29.97in /  1014.8hPa Calm     76% 0.00in /  0mm 0.0 W/m2 SCT
07:45 64.5 °F /  18.1 °C 56.8 °F /  13.8 °C 29.97in /  1014.8hPa Calm     76% 0.00in /  0mm 0.0 W/m2 SCT
08:00 64.5 °F /  18.1 °C 56.8 °F /  13.8 °C 29.98in /  1015.1hPa Calm     76% 0.00in /  0mm 0.0 W/m2 SCT
08:15 64.5 °F /  18.1 °C 56.8 °F /  13.8 °C 29.98in /  1015.1hPa Calm     76% 0.00in /  0mm 0.0 W/m2 SCT
08:30 64.5 °F /  18.1 °C 56.8 °F /  13.8 °C 29.99in /  1015.5hPa Calm     76% 0.00in /  0mm 0.0 W/m2 SCT
08:45 61.1 °F /  16.2 °C 57.5 °F /  14.2 °C 29.99in /  1015.5hPa Calm     88% 0.00in /  0mm 0.0 W/m2 SCT
09:00 62.4 °F /  16.9 °C 58.8 °F /  14.9 °C 30.00in /  1015.8hPa Calm     88% 0.00in /  0mm 0.0 W/m2 SCT
09:15 63.5 °F /  17.5 °C 58.6 °F /  14.8 °C 30.00in /  1015.8hPa Calm     84% 0.00in /  0mm 0.0 W/m2 SCT
09:30 64.4 °F /  18 °C 58.8 °F /  14.9 °C 30.00in /  1015.8hPa Calm     82% 0.00in /  0mm 0.0 W/m2 SCT
09:45 65.2 °F /  18.4 °C 58.5 °F /  14.7 °C 30.00in /  1015.8hPa Calm   1.0mph /  1.6km/h 79% 0.00in /  0mm 0.0 W/m2 SCT
10:00 66.2 °F /  19 °C 58.4 °F /  14.7 °C 30.00in /  1015.8hPa Calm   1.0mph /  1.6km/h 76% 0.00in /  0mm 0.0 W/m2 SCT
10:15 67.3 °F /  19.6 °C 57.2 °F /  14 °C 30.00in /  1015.8hPa Calm     70% 0.00in /  0mm 0.0 W/m2 SCT
10:30 69.5 °F /  20.8 °C 57.6 °F /  14.2 °C 30.00in /  1015.8hPa Calm   2.0mph /  3.2km/h 66% 0.00in /  0mm 0.0 W/m2 SCT
10:45 71.4 °F /  21.9 °C 55.9 °F /  13.3 °C 30.00in /  1015.8hPa Calm   2.0mph /  3.2km/h 58% 0.00in /  0mm 0.0 W/m2 SCT
11:00 72.2 °F /  22.3 °C 56.1 °F /  13.4 °C 29.99in /  1015.5hPa WNW 1.0mph /  1.6km/h 2.0mph /  3.2km/h 57% 0.00in /  0mm 0.0 W/m2 SCT
11:15 72.8 °F /  22.7 °C 56.2 °F /  13.4 °C 29.98in /  1015.1hPa Calm   3.0mph /  4.8km/h 56% 0.00in /  0mm 0.0 W/m2 SCT
11:30 73.4 °F /  23 °C 56.3 °F /  13.5 °C 29.98in /  1015.1hPa Calm   2.0mph /  3.2km/h 55% 0.00in /  0mm 0.0 W/m2 SCT
11:45 74.2 °F /  23.4 °C 55.4 °F /  13 °C 29.97in /  1014.8hPa NW 1.0mph /  1.6km/h 3.0mph /  4.8km/h 52% 0.00in /  0mm 0.0 W/m2 SCT
12:00 74.5 °F /  23.6 °C 56.3 °F /  13.5 °C 29.97in /  1014.8hPa Calm   3.0mph /  4.8km/h 53% 0.00in /  0mm 0.0 W/m2 SCT
12:15 74.0 °F /  23.3 °C 55.7 °F /  13.2 °C 29.97in /  1014.8hPa Calm   3.0mph /  4.8km/h 53% 0.00in /  0mm 0.0 W/m2 SCT
12:30 74.0 °F /  23.3 °C 56.8 °F /  13.8 °C 29.96in /  1014.4hPa NW 1.0mph /  1.6km/h 5.0mph /  8km/h 55% 0.00in /  0mm 0.0 W/m2 SCT
12:45 74.6 °F /  23.7 °C 55.3 °F /  12.9 °C 29.95in /  1014.1hPa NW 1.0mph /  1.6km/h 5.0mph /  8km/h 51% 0.00in /  0mm 0.0 W/m2 SCT
13:00 75.5 °F /  24.2 °C 55.5 °F /  13.1 °C 29.94in /  1013.8hPa WNW 1.0mph /  1.6km/h 5.0mph /  8km/h 50% 0.00in /  0mm 0.0 W/m2 SCT
13:15 77.6 °F /  25.3 °C 55.2 °F /  12.9 °C 29.93in /  1013.4hPa West 2.0mph /  3.2km/h 6.0mph /  9.7km/h 46% 0.00in /  0mm 0.0 W/m2 SCT
13:30 78.3 °F /  25.7 °C 54.0 °F /  12.2 °C 29.91in /  1012.8hPa WNW 1.0mph /  1.6km/h 6.0mph /  9.7km/h 43% 0.00in /  0mm 0.0 W/m2 SCT
13:45 79.7 °F /  26.5 °C 54.6 °F /  12.6 °C 29.91in /  1012.8hPa West 1.0mph /  1.6km/h 5.0mph /  8km/h 42% 0.00in /  0mm 0.0 W/m2 SCT
14:00 79.1 °F /  26.2 °C 53.4 °F /  11.9 °C 29.89in /  1012.1hPa NW 1.0mph /  1.6km/h 6.0mph /  9.7km/h 41% 0.00in /  0mm 0.0 W/m2 SCT
14:15 80.2 °F /  26.8 °C 51.6 °F /  10.9 °C 29.89in /  1012.1hPa NW 2.0mph /  3.2km/h 5.0mph /  8km/h 37% 0.00in /  0mm 0.0 W/m2 SCT
14:30 81.1 °F /  27.3 °C 52.3 °F /  11.3 °C 29.88in /  1011.7hPa WNW 2.0mph /  3.2km/h 5.0mph /  8km/h 37% 0.00in /  0mm 0.0 W/m2 SCT
14:45 81.4 °F /  27.4 °C 54.1 °F /  12.3 °C 29.86in /  1011.1hPa NNW 1.0mph /  1.6km/h 6.0mph /  9.7km/h 39% 0.00in /  0mm 0.0 W/m2 SCT
15:00 81.7 °F /  27.6 °C 52.2 °F /  11.2 °C 29.85in /  1010.7hPa WNW 2.0mph /  3.2km/h 7.0mph /  11.3km/h 36% 0.00in /  0mm 0.0 W/m2 SCT
15:15 80.9 °F /  27.2 °C 50.7 °F /  10.4 °C 29.85in /  1010.7hPa NW 3.0mph /  4.8km/h 7.0mph /  11.3km/h 35% 0.00in /  0mm 0.0 W/m2 SCT
15:30 80.3 °F /  26.8 °C 51.7 °F /  10.9 °C 29.84in /  1010.4hPa Calm   8.0mph /  12.9km/h 37% 0.00in /  0mm 0.0 W/m2 SCT
15:45 80.3 °F /  26.8 °C 49.4 °F /  9.7 °C 29.83in /  1010hPa WNW 1.0mph /  1.6km/h 7.0mph /  11.3km/h 34% 0.00in /  0mm 0.0 W/m2 SCT
16:00 80.2 °F /  26.8 °C 51.6 °F /  10.9 °C 29.82in /  1009.7hPa WNW 1.0mph /  1.6km/h 8.0mph /  12.9km/h 37% 0.00in /  0mm 0.0 W/m2 SCT
16:15 79.9 °F /  26.6 °C 47.4 °F /  8.6 °C 29.82in /  1009.7hPa NNW 1.0mph /  1.6km/h 6.0mph /  9.7km/h 32% 0.00in /  0mm 0.0 W/m2 SCT
16:30 79.9 °F /  26.6 °C 47.4 °F /  8.6 °C 29.82in /  1009.7hPa NW 1.0mph /  1.6km/h 5.0mph /  8km/h 32% 0.00in /  0mm 0.0 W/m2 SCT
16:45 80.2 °F /  26.8 °C 47.7 °F /  8.7 °C 29.81in /  1009.4hPa NW 3.0mph /  4.8km/h 8.0mph /  12.9km/h 32% 0.00in /  0mm 0.0 W/m2 SCT
17:00 80.1 °F /  26.7 °C 47.6 °F /  8.7 °C 29.80in /  1009hPa NW 1.0mph /  1.6km/h 6.0mph /  9.7km/h 32% 0.00in /  0mm 0.0 W/m2 SCT
17:15 79.4 °F /  26.3 °C 47.0 °F /  8.3 °C 29.80in /  1009hPa NW 2.0mph /  3.2km/h 6.0mph /  9.7km/h 32% 0.00in /  0mm 0.0 W/m2 SCT
17:30 79.0 °F /  26.1 °C 48.2 °F /  9 °C 29.79in /  1008.7hPa Calm   5.0mph /  8km/h 34% 0.00in /  0mm 0.0 W/m2 SCT
17:45 78.7 °F /  25.9 °C 49.5 °F /  9.7 °C 29.79in /  1008.7hPa WNW 1.0mph /  1.6km/h 5.0mph /  8km/h 36% 0.00in /  0mm 0.0 W/m2 SCT
18:00 78.3 °F /  25.7 °C 49.2 °F /  9.6 °C 29.79in /  1008.7hPa NW 1.0mph /  1.6km/h 5.0mph /  8km/h 36% 0.00in /  0mm 0.0 W/m2 SCT
18:15 77.9 °F /  25.5 °C 50.2 °F /  10.1 °C 29.79in /  1008.7hPa WNW 1.0mph /  1.6km/h 3.0mph /  4.8km/h 38% 0.00in /  0mm 0.0 W/m2 SCT
18:30 77.5 °F /  25.3 °C 50.6 °F /  10.3 °C 29.79in /  1008.7hPa Calm   2.0mph /  3.2km/h 39% 0.00in /  0mm 0.0 W/m2 SCT
18:45 77.2 °F /  25.1 °C 50.4 °F /  10.2 °C 29.78in /  1008.4hPa Calm   5.0mph /  8km/h 39% 0.00in /  0mm 0.0 W/m2 SCT
19:00 76.8 °F /  24.9 °C 51.3 °F /  10.7 °C 29.78in /  1008.4hPa Calm   2.0mph /  3.2km/h 41% 0.00in /  0mm 0.0 W/m2 SCT
19:15 76.5 °F /  24.7 °C 51.0 °F /  10.6 °C 29.78in /  1008.4hPa Calm   5.0mph /  8km/h 41% 0.00in /  0mm 0.0 W/m2 SCT
19:30 76.1 °F /  24.5 °C 51.3 °F /  10.7 °C 29.78in /  1008.4hPa Calm   3.0mph /  4.8km/h 42% 0.00in /  0mm 0.0 W/m2 SCT
19:45 75.7 °F /  24.3 °C 51.6 °F /  10.9 °C 29.78in /  1008.4hPa Calm   2.0mph /  3.2km/h 43% 0.00in /  0mm 0.0 W/m2 SCT
20:00 75.3 °F /  24.1 °C 51.9 °F /  11.1 °C 29.77in /  1008hPa Calm   2.0mph /  3.2km/h 44% 0.00in /  0mm 0.0 W/m2 SCT
20:15 75.1 °F /  23.9 °C 52.9 °F /  11.6 °C 29.77in /  1008hPa Calm   3.0mph /  4.8km/h 46% 0.00in /  0mm 0.0 W/m2 SCT
20:30 74.4 °F /  23.6 °C 52.9 °F /  11.6 °C 29.78in /  1008.4hPa Calm   1.0mph /  1.6km/h 47% 0.00in /  0mm 0.0 W/m2 SCT
20:45 74.0 °F /  23.3 °C 53.1 °F /  11.7 °C 29.78in /  1008.4hPa Calm   1.0mph /  1.6km/h 48% 0.00in /  0mm 0.0 W/m2 SCT
21:00 74.0 °F /  23.3 °C 53.6 °F /  12 °C 29.78in /  1008.4hPa Calm   1.0mph /  1.6km/h 49% 0.00in /  0mm 0.0 W/m2 SCT
21:15 73.7 °F /  23.2 °C 53.9 °F /  12.2 °C 29.78in /  1008.4hPa Calm   1.0mph /  1.6km/h 50% 0.00in /  0mm 0.0 W/m2 SCT
21:30 73.5 °F /  23.1 °C 54.2 °F /  12.3 °C 29.79in /  1008.7hPa WNW 1.0mph /  1.6km/h 3.0mph /  4.8km/h 51% 0.00in /  0mm 0.0 W/m2 SCT
21:45 72.3 °F /  22.4 °C 55.7 °F /  13.2 °C 29.79in /  1008.7hPa Calm   5.0mph /  8km/h 56% 0.00in /  0mm 0.0 W/m2 SCT
22:00 70.6 °F /  21.4 °C 57.8 °F /  14.3 °C 29.82in /  1009.7hPa North 1.0mph /  1.6km/h 3.0mph /  4.8km/h 64% 0.00in /  0mm 0.0 W/m2 SCT
22:15 64.8 °F /  18.2 °C 58.5 °F /  14.7 °C 29.78in /  1008.4hPa Calm   5.0mph /  8km/h 80% 0.01in /  0.25mm 0.0 W/m2 SCT
22:30 63.1 °F /  17.3 °C 58.5 °F /  14.7 °C 29.80in /  1009hPa Calm   1.0mph /  1.6km/h 85% 0.01in /  0.25mm 0.0 W/m2 SCT
22:45 62.4 °F /  16.9 °C 58.5 °F /  14.7 °C 29.77in /  1008hPa Calm   2.0mph /  3.2km/h 87% 0.01in /  0.25mm 0.0 W/m2 SCT
23:00 62.3 °F /  16.8 °C 58.4 °F /  14.7 °C 29.81in /  1009.4hPa NW 1.0mph /  1.6km/h 6.0mph /  9.7km/h 87% 0.02in /  0.51mm 0.0 W/m2 RA
23:15 61.4 °F /  16.3 °C 57.8 °F /  14.3 °C 29.83in /  1010hPa Calm   7.0mph /  11.3km/h 88% 0.06in /  1.52mm 0.0 W/m2 SCT
23:30 60.7 °F /  15.9 °C 57.4 °F /  14.1 °C 29.83in /  1010hPa Calm   5.0mph /  8km/h 89% 0.04in /  1.02mm 0.0 W/m2 SCT
23:45 60.3 °F /  15.7 °C 57.0 °F /  13.9 °C 29.79in /  1008.7hPa Calm   2.0mph /  3.2km/h 89% 0.04in /  1.02mm 0.0 W/m2 RA
Piedmont Bend
Compliments of Weather Underground - 4 mb